createdAt,value
2016-07-02T00:00:58.772Z,68.81
2016-07-02T00:01:58.762Z,68.62
2016-07-02T00:02:58.747Z,68.43
2016-07-02T00:03:58.736Z,68.13
2016-07-02T00:04:58.711Z,67.85
2016-07-02T00:05:58.709Z,68.33
2016-07-02T00:06:58.678Z,67.94
2016-07-02T00:07:58.665Z,68.13
2016-07-02T00:08:58.656Z,68.91
2016-07-02T00:09:58.642Z,68.23
2016-07-02T00:10:58.631Z,67.94
2016-07-02T00:11:58.610Z,67.85
2016-07-02T00:12:58.601Z,68.62
2016-07-02T00:13:58.583Z,68.81
2016-07-02T00:14:58.567Z,68.33
2016-07-02T00:15:58.551Z,68.33
2016-07-02T00:16:58.540Z,68.43
2016-07-02T00:17:58.528Z,68.52
2016-07-02T00:18:58.505Z,68.71
2016-07-02T00:19:58.508Z,68.52
2016-07-02T00:20:58.480Z,68.33
2016-07-02T00:21:58.464Z,68.23
2016-07-02T00:22:58.449Z,68.33
2016-07-02T00:23:58.436Z,67.94
2016-07-02T00:24:58.420Z,67.85
2016-07-02T00:25:58.407Z,68.13
2016-07-02T00:26:58.385Z,68.23
2016-07-02T00:27:58.375Z,68.43
2016-07-02T00:28:58.356Z,68.04
2016-07-02T00:29:58.348Z,68.33
2016-07-02T00:30:58.335Z,68.62
2016-07-02T00:31:58.314Z,68.59
2016-07-02T00:32:58.298Z,68.62
2016-07-02T00:33:58.293Z,68.62
2016-07-02T00:34:58.273Z,68.33
2016-07-02T00:35:58.252Z,68.81
2016-07-02T00:36:58.235Z,68.52
2016-07-02T00:37:58.232Z,68.13
2016-07-02T00:38:58.208Z,68.43
2016-07-02T00:39:58.190Z,68.43
2016-07-02T00:40:58.180Z,68.43
2016-07-02T00:41:58.165Z,68.04
2016-07-02T00:42:58.154Z,68.43
2016-07-02T00:43:58.139Z,68.81
2016-07-02T00:44:58.123Z,68.52
2016-07-02T00:45:58.110Z,68.52
2016-07-02T00:46:58.092Z,68.77
2016-07-02T00:47:58.076Z,68.62
2016-07-02T00:48:58.074Z,68.62
2016-07-02T00:49:58.049Z,68.62
2016-07-02T00:50:58.028Z,68.52
2016-07-02T00:51:58.012Z,68.29
2016-07-02T00:52:57.997Z,68.33
2016-07-02T00:53:57.993Z,67.85
2016-07-02T00:54:57.978Z,67.91
2016-07-02T00:55:57.339Z,68.01
2016-07-02T00:56:57.943Z,67.91
2016-07-02T00:57:57.929Z,67.91
2016-07-02T00:58:57.913Z,67.91
2016-07-02T00:59:57.896Z,67.91
2016-07-02T01:00:57.883Z,68.39
2016-07-02T01:01:57.870Z,68.1
2016-07-02T01:02:57.851Z,68.01
2016-07-02T01:03:57.837Z,68.01
2016-07-02T01:04:57.824Z,68.1
2016-07-02T01:05:57.800Z,68.29
2016-07-02T01:06:57.793Z,68.39
2016-07-02T01:07:57.779Z,67.91
2016-07-02T01:08:57.758Z,67.71
2016-07-02T01:09:57.747Z,68.39
2016-07-02T01:10:57.724Z,68.19
2016-07-02T01:11:57.712Z,68.29
2016-07-02T01:12:57.693Z,68.1
2016-07-02T01:13:57.679Z,68.39
2016-07-02T01:14:57.678Z,68.19
2016-07-02T01:15:57.658Z,68.01
2016-07-02T01:16:57.634Z,67.91
2016-07-02T01:17:57.624Z,67.62
2016-07-02T01:18:57.002Z,67.91
2016-07-02T01:19:57.599Z,67.62
2016-07-02T01:20:57.585Z,67.62
2016-07-02T01:21:57.563Z,67.71
2016-07-02T01:22:57.545Z,67.71
2016-07-02T01:23:57.533Z,67.91
2016-07-02T01:24:57.522Z,67.91
2016-07-02T01:25:57.512Z,67.62
2016-07-02T01:26:57.490Z,67.62
2016-07-02T01:27:56.860Z,67.91
2016-07-02T01:28:57.453Z,67.81
2016-07-02T01:29:57.443Z,68.01
2016-07-02T01:30:57.426Z,67.81
2016-07-02T01:31:57.415Z,67.91
2016-07-02T01:32:57.394Z,67.71
2016-07-02T01:33:57.378Z,67.81
2016-07-02T01:34:57.366Z,67.81
2016-07-02T01:35:57.358Z,67.81
2016-07-02T01:36:57.332Z,67.62
2016-07-02T01:37:57.316Z,67.81
2016-07-02T01:38:56.696Z,68.01
2016-07-02T01:39:57.290Z,67.71
2016-07-02T01:40:57.282Z,67.52
2016-07-02T01:41:57.268Z,67.52
2016-07-02T01:42:57.251Z,67.52
2016-07-02T01:43:57.242Z,67.14
2016-07-02T01:44:57.221Z,67.52
2016-07-02T01:45:57.202Z,66.94
2016-07-02T01:46:57.191Z,67.14
2016-07-02T01:47:57.180Z,67.14
2016-07-02T01:48:57.157Z,67.23
2016-07-02T01:49:57.145Z,67.14
2016-07-02T01:50:57.131Z,67.23
2016-07-02T01:51:57.116Z,67.14
2016-07-02T01:52:57.096Z,67.14
2016-07-02T01:53:57.092Z,66.94
2016-07-02T01:54:57.071Z,67.14
2016-07-02T01:55:57.055Z,66.94
2016-07-02T01:56:57.040Z,66.85
2016-07-02T01:57:57.034Z,67.14
2016-07-02T01:58:56.388Z,67.14
2016-07-02T01:59:57.002Z,67.14
2016-07-02T02:00:56.983Z,67.23
2016-07-02T02:01:56.972Z,67.43
2016-07-02T02:02:56.948Z,67.14
2016-07-02T02:03:56.944Z,66.94
2016-07-02T02:04:56.922Z,67.04
2016-07-02T02:05:56.907Z,67.43
2016-07-02T02:06:56.889Z,66.85
2016-07-02T02:07:56.865Z,66.66
2016-07-02T02:08:56.854Z,66.75
2016-07-02T02:09:56.845Z,67.43
2016-07-02T02:10:56.821Z,66.66
2016-07-02T02:11:56.813Z,66.94
2016-07-02T02:12:56.799Z,66.56
2016-07-02T02:13:56.783Z,66.66
2016-07-02T02:14:56.768Z,66.66
2016-07-02T02:15:56.748Z,67.33
2016-07-02T02:16:56.733Z,67.33
2016-07-02T02:17:56.714Z,66.75
2016-07-02T02:18:56.706Z,66.66
2016-07-02T02:19:56.695Z,66.56
2016-07-02T02:20:56.673Z,66.85
2016-07-02T02:21:56.670Z,66.94
2016-07-02T02:22:56.647Z,66.85
2016-07-02T02:23:56.631Z,66.94
2016-07-02T02:24:56.631Z,66.33
2016-07-02T02:25:56.601Z,66.46
2016-07-02T02:26:56.588Z,66.56
2016-07-02T02:27:56.574Z,66.33
2016-07-02T02:28:56.556Z,66.66
2016-07-02T02:29:56.541Z,66.72
2016-07-02T02:30:56.529Z,66.82
2016-07-02T02:31:56.503Z,66.91
2016-07-02T02:32:56.493Z,67
2016-07-02T02:33:56.481Z,66.72
2016-07-02T02:34:56.469Z,66.82
2016-07-02T02:35:56.451Z,66.62
2016-07-02T02:36:56.430Z,66.72
2016-07-02T02:37:56.420Z,66.62
2016-07-02T02:38:56.405Z,66.52
2016-07-02T02:39:56.387Z,66.33
2016-07-02T02:40:56.371Z,66.33
2016-07-02T02:41:55.744Z,66.04
2016-07-02T02:42:56.342Z,65.95
2016-07-02T02:43:56.328Z,66.43
2016-07-02T02:44:56.312Z,66.52
2016-07-02T02:45:56.301Z,66.24
2016-07-02T02:46:56.288Z,66.04
2016-07-02T02:47:56.267Z,66.24
2016-07-02T02:48:56.251Z,65.85
2016-07-02T02:49:56.240Z,65.66
2016-07-02T02:50:56.225Z,65.56
2016-07-02T02:51:56.199Z,64.98
2016-07-02T02:52:56.196Z,65.17
2016-07-02T02:53:56.170Z,65.37
2016-07-02T02:54:56.161Z,65.47
2016-07-02T02:55:56.141Z,65.17
2016-07-02T02:56:56.139Z,65.27
2016-07-02T02:57:56.112Z,65.47
2016-07-02T02:58:56.097Z,65.27
2016-07-02T02:59:56.077Z,65.47
2016-07-02T03:00:56.070Z,65.08
2016-07-02T03:01:56.052Z,64.86
2016-07-02T03:02:56.038Z,64.69
2016-07-02T03:03:56.015Z,64.69
2016-07-02T03:04:55.997Z,64.76
2016-07-02T03:05:55.991Z,64.76
2016-07-02T03:06:55.375Z,64.21
2016-07-02T03:07:55.962Z,64.86
2016-07-02T03:08:55.940Z,64.47
2016-07-02T03:09:55.924Z,64.37
2016-07-02T03:10:55.913Z,64.95
2016-07-02T03:11:55.909Z,64.86
2016-07-02T03:12:55.875Z,64.18
2016-07-02T03:13:55.871Z,64.28
2016-07-02T03:14:55.851Z,64.28
2016-07-02T03:15:55.834Z,64.56
2016-07-02T03:16:55.818Z,64.47
2016-07-02T03:17:55.804Z,63.98
2016-07-02T03:18:55.794Z,64.08
2016-07-02T03:19:55.764Z,63.41
2016-07-02T03:20:55.758Z,63.31
2016-07-02T03:21:55.744Z,63.41
2016-07-02T03:22:55.722Z,63.31
2016-07-02T03:23:55.707Z,63.79
2016-07-02T03:24:55.694Z,63.02
2016-07-02T03:25:55.685Z,63.02
2016-07-02T03:26:55.665Z,63.31
2016-07-02T03:27:55.648Z,63.89
2016-07-02T03:28:55.627Z,63.21
2016-07-02T03:29:55.624Z,63.21
2016-07-02T03:30:55.602Z,63.21
2016-07-02T03:31:55.590Z,63.41
2016-07-02T03:32:55.568Z,62.83
2016-07-02T03:33:55.556Z,62.83
2016-07-02T03:34:55.543Z,62.93
2016-07-02T03:35:55.522Z,63.02
2016-07-02T03:36:55.509Z,62.73
2016-07-02T03:37:55.486Z,62.9
2016-07-02T03:38:55.479Z,62.73
2016-07-02T03:39:55.458Z,63.21
2016-07-02T03:40:55.447Z,63.28
2016-07-02T03:41:55.435Z,62.73
2016-07-02T03:42:55.416Z,62.9
2016-07-02T03:43:55.404Z,63.09
2016-07-02T03:44:55.387Z,62.83
2016-07-02T03:45:55.370Z,62.73
2016-07-02T03:46:55.353Z,62.83
2016-07-02T03:47:55.337Z,62.83
2016-07-02T03:48:55.326Z,62.83
2016-07-02T03:49:55.305Z,62.63
2016-07-02T03:50:55.289Z,62.83
2016-07-02T03:51:55.277Z,62.93
2016-07-02T03:52:55.259Z,62.6
2016-07-02T03:53:55.246Z,62.7
2016-07-02T03:54:55.232Z,62.99
2016-07-02T03:55:55.214Z,62.99
2016-07-02T03:56:54.587Z,62.8
2016-07-02T03:57:55.180Z,62.6
2016-07-02T03:58:55.166Z,62.6
2016-07-02T03:59:55.152Z,62.63
2016-07-02T04:00:55.136Z,63.12
2016-07-02T04:01:55.121Z,62.6
2016-07-02T04:02:55.105Z,63.02
2016-07-02T04:03:55.088Z,62.8
2016-07-02T04:04:55.075Z,62.8
2016-07-02T04:05:55.062Z,63.02
2016-07-02T04:06:55.040Z,62.99
2016-07-02T04:07:55.031Z,62.73
2016-07-02T04:08:55.010Z,62.7
2016-07-02T04:09:54.995Z,62.51
2016-07-02T04:10:54.976Z,62.63
2016-07-02T04:11:54.968Z,62.22
2016-07-02T04:12:54.943Z,63.09
2016-07-02T04:13:54.938Z,63.09
2016-07-02T04:14:54.917Z,62.63
2016-07-02T04:15:54.910Z,62.8
2016-07-02T04:16:54.883Z,62.7
2016-07-02T04:17:54.874Z,62.9
2016-07-02T04:18:54.853Z,62.8
2016-07-02T04:19:54.229Z,62.99
2016-07-02T04:20:54.828Z,62.7
2016-07-02T04:21:54.805Z,63.12
2016-07-02T04:22:54.797Z,62.8
2016-07-02T04:23:54.787Z,62.35
2016-07-02T04:24:54.761Z,62.7
2016-07-02T04:25:54.747Z,62.8
2016-07-02T04:26:54.732Z,62.83
2016-07-02T04:27:54.715Z,62.6
2016-07-02T04:28:54.700Z,62.6
2016-07-02T04:29:54.686Z,62.7
2016-07-02T04:30:54.673Z,62.73
2016-07-02T04:31:54.650Z,62.7
2016-07-02T04:32:54.027Z,62.32
2016-07-02T04:33:54.622Z,62.32
2016-07-02T04:34:53.987Z,62.41
2016-07-02T04:35:54.585Z,62.12
2016-07-02T04:36:54.575Z,62.6
2016-07-02T04:37:54.556Z,62.6
2016-07-02T04:38:54.546Z,62.7
2016-07-02T04:39:54.529Z,62.32
2016-07-02T04:40:54.519Z,62.51
2016-07-02T04:41:54.496Z,62.41
2016-07-02T04:42:54.475Z,62.32
2016-07-02T04:43:54.465Z,62.32
2016-07-02T04:44:54.464Z,62.32
2016-07-02T04:45:54.436Z,62.22
2016-07-02T04:46:54.423Z,62.51
2016-07-02T04:47:54.406Z,62.22
2016-07-02T04:48:54.385Z,62.7
2016-07-02T04:49:54.374Z,62.22
2016-07-02T04:50:54.361Z,61.83
2016-07-02T04:51:54.337Z,62.22
2016-07-02T04:52:54.324Z,62.32
2016-07-02T04:53:54.307Z,62.32
2016-07-02T04:54:54.293Z,62.12
2016-07-02T04:55:54.280Z,62.32
2016-07-02T04:56:54.264Z,62.32
2016-07-02T04:57:54.253Z,62.12
2016-07-02T04:58:54.231Z,62.32
2016-07-02T04:59:54.218Z,62.22
2016-07-02T05:00:54.200Z,62.22
2016-07-02T05:01:54.179Z,62.32
2016-07-02T05:02:54.164Z,62.41
2016-07-02T05:03:54.152Z,61.83
2016-07-02T05:04:54.138Z,61.83
2016-07-02T05:05:53.502Z,62.12
2016-07-02T05:06:54.115Z,62.12
2016-07-02T05:07:54.087Z,62.51
2016-07-02T05:08:54.068Z,62.22
2016-07-02T05:09:54.049Z,62.12
2016-07-02T05:10:54.042Z,62.32
2016-07-02T05:11:54.027Z,62.32
2016-07-02T05:12:54.008Z,62.32
2016-07-02T05:13:53.992Z,62.12
2016-07-02T05:14:53.975Z,62.22
2016-07-02T05:15:53.967Z,62.03
2016-07-02T05:16:53.956Z,62.12
2016-07-02T05:17:53.925Z,62.03
2016-07-02T05:18:53.916Z,62.32
2016-07-02T05:19:53.899Z,62.32
2016-07-02T05:20:53.882Z,62.03
2016-07-02T05:21:53.870Z,62.32
2016-07-02T05:22:53.856Z,62.32
2016-07-02T05:23:53.838Z,61.74
2016-07-02T05:24:53.820Z,61.83
2016-07-02T05:25:53.802Z,62.41
2016-07-02T05:26:53.791Z,61.65
2016-07-02T05:27:53.776Z,62.12
2016-07-02T05:28:53.149Z,61.74
2016-07-02T05:29:53.737Z,62.32
2016-07-02T05:30:53.722Z,62.51
2016-07-02T05:31:53.713Z,62.22
2016-07-02T05:32:53.692Z,62.12
2016-07-02T05:33:53.683Z,62.03
2016-07-02T05:34:53.667Z,62.51
2016-07-02T05:35:53.651Z,62.03
2016-07-02T05:36:53.630Z,62.03
2016-07-02T05:37:53.616Z,61.65
2016-07-02T05:38:53.601Z,62.12
2016-07-02T05:39:53.588Z,62.03
2016-07-02T05:40:53.570Z,61.83
2016-07-02T05:41:53.552Z,62.12
2016-07-02T05:42:53.536Z,62.12
2016-07-02T05:43:53.520Z,62.12
2016-07-02T05:44:53.508Z,62.03
2016-07-02T05:45:53.491Z,62.12
2016-07-02T05:46:52.862Z,62.03
2016-07-02T05:47:53.452Z,62.22
2016-07-02T05:48:53.438Z,62.12
2016-07-02T05:49:53.429Z,61.55
2016-07-02T05:50:53.407Z,61.93
2016-07-02T05:51:53.402Z,61.65
2016-07-02T05:52:53.385Z,62.22
2016-07-02T05:53:53.359Z,62.12
2016-07-02T05:54:53.346Z,62.03
2016-07-02T05:55:53.329Z,61.65
2016-07-02T05:56:53.320Z,62.03
2016-07-02T05:57:53.301Z,61.93
2016-07-02T05:58:53.276Z,62.03
2016-07-02T05:59:53.266Z,62.03
2016-07-02T06:00:53.243Z,62.41
2016-07-02T06:01:53.242Z,62.12
2016-07-02T06:02:53.216Z,62.03
2016-07-02T06:03:53.205Z,62.32
2016-07-02T06:04:53.186Z,62.8
2016-07-02T06:05:53.168Z,62.99
2016-07-02T06:06:53.154Z,62.6
2016-07-02T06:07:53.138Z,62.41
2016-07-02T06:08:53.126Z,62.7
2016-07-02T06:09:53.116Z,62.9
2016-07-02T06:10:53.093Z,62.87
2016-07-02T06:11:53.079Z,62.77
2016-07-02T06:12:53.066Z,63.44
2016-07-02T06:13:53.038Z,63.25
2016-07-02T06:14:53.026Z,63.28
2016-07-02T06:15:52.394Z,63.25
2016-07-02T06:16:52.998Z,63.09
2016-07-02T06:17:52.979Z,63.09
2016-07-02T06:18:52.343Z,63.38
2016-07-02T06:19:52.951Z,62.7
2016-07-02T06:20:52.931Z,63.18
2016-07-02T06:21:52.918Z,63.38
2016-07-02T06:22:52.908Z,63.28
2016-07-02T06:23:52.886Z,63.28
2016-07-02T06:24:52.867Z,63.25
2016-07-02T06:25:52.856Z,63.18
2016-07-02T06:26:52.832Z,63.34
2016-07-02T06:27:52.816Z,62.96
2016-07-02T06:28:52.809Z,63.18
2016-07-02T06:29:52.780Z,64.02
2016-07-02T06:30:52.764Z,62.99
2016-07-02T06:31:52.754Z,63.82
2016-07-02T06:32:52.125Z,63.34
2016-07-02T06:33:52.729Z,63.18
2016-07-02T06:34:52.707Z,63.38
2016-07-02T06:35:52.691Z,63.15
2016-07-02T06:36:52.673Z,63.25
2016-07-02T06:37:52.660Z,63.76
2016-07-02T06:38:52.034Z,63.34
2016-07-02T06:39:52.631Z,63.34
2016-07-02T06:40:52.616Z,63.15
2016-07-02T06:41:52.595Z,63.25
2016-07-02T06:42:52.592Z,62.87
2016-07-02T06:43:52.566Z,62.96
2016-07-02T06:44:52.553Z,63.25
2016-07-02T06:45:52.535Z,63.34
2016-07-02T06:46:52.521Z,63.25
2016-07-02T06:47:52.516Z,63.25
2016-07-02T06:48:52.484Z,63.44
2016-07-02T06:49:52.468Z,62.96
2016-07-02T06:50:52.458Z,63.34
2016-07-02T06:51:52.433Z,63.34
2016-07-02T06:52:52.421Z,63.25
2016-07-02T06:53:52.405Z,63.15
2016-07-02T06:54:52.399Z,63.06
2016-07-02T06:55:52.376Z,63.34
2016-07-02T06:56:52.364Z,63.25
2016-07-02T06:57:52.344Z,63.44
2016-07-02T06:58:51.714Z,63.64
2016-07-02T06:59:52.317Z,63.34
2016-07-02T07:00:52.294Z,63.34
2016-07-02T07:01:52.279Z,63.34
2016-07-02T07:02:51.649Z,63.34
2016-07-02T07:03:52.247Z,63.34
2016-07-02T07:04:52.230Z,63.34
2016-07-02T07:05:52.212Z,63.25
2016-07-02T07:06:52.195Z,63.15
2016-07-02T07:07:52.180Z,62.96
2016-07-02T07:08:52.171Z,63.34
2016-07-02T07:09:52.154Z,63.34
2016-07-02T07:10:51.517Z,63.25
2016-07-02T07:11:52.124Z,62.87
2016-07-02T07:12:52.098Z,62.87
2016-07-02T07:13:52.088Z,63.34
2016-07-02T07:14:52.071Z,62.96
2016-07-02T07:15:52.054Z,63.06
2016-07-02T07:16:52.035Z,63.25
2016-07-02T07:17:52.022Z,62.96
2016-07-02T07:18:52.005Z,63.15
2016-07-02T07:19:52.003Z,62.96
2016-07-02T07:20:51.360Z,62.9
2016-07-02T07:21:51.959Z,62.22
2016-07-02T07:22:51.947Z,62.99
2016-07-02T07:23:51.924Z,63.06
2016-07-02T07:24:51.918Z,62.57
2016-07-02T07:25:51.896Z,62.9
2016-07-02T07:26:51.876Z,62.99
2016-07-02T07:27:51.864Z,62.99
2016-07-02T07:28:51.851Z,62.6
2016-07-02T07:29:51.829Z,62.99
2016-07-02T07:30:51.810Z,62.48
2016-07-02T07:31:51.799Z,62.96
2016-07-02T07:32:51.783Z,63.09
2016-07-02T07:33:51.763Z,62.9
2016-07-02T07:34:51.751Z,62.57
2016-07-02T07:35:51.740Z,62.29
2016-07-02T07:36:51.715Z,62.67
2016-07-02T07:37:51.705Z,62.38
2016-07-02T07:38:51.696Z,63.06
2016-07-02T07:39:51.672Z,62.96
2016-07-02T07:40:51.656Z,62.48
2016-07-02T07:41:51.648Z,62.77
2016-07-02T07:42:51.624Z,62.77
2016-07-02T07:43:51.611Z,63.06
2016-07-02T07:44:51.596Z,62.57
2016-07-02T07:45:51.578Z,62.38
2016-07-02T07:46:51.561Z,62.09
2016-07-02T07:47:51.542Z,62.29
2016-07-02T07:48:51.530Z,62.19
2016-07-02T07:49:51.511Z,62.19
2016-07-02T07:50:51.504Z,62.38
2016-07-02T07:51:51.485Z,62.29
2016-07-02T07:52:51.460Z,61.71
2016-07-02T07:53:51.448Z,61.52
2016-07-02T07:54:51.430Z,62.29
2016-07-02T07:55:51.418Z,62.29
2016-07-02T07:56:51.409Z,62.06
2016-07-02T07:57:51.389Z,62.09
2016-07-02T07:58:51.367Z,62.06
2016-07-02T07:59:51.354Z,62.09
2016-07-02T08:00:51.332Z,61.71
2016-07-02T08:01:51.328Z,61.58
2016-07-02T08:02:51.303Z,61.29
2016-07-02T08:03:51.287Z,61.97
2016-07-02T08:04:51.272Z,61.87
2016-07-02T08:05:51.259Z,62.06
2016-07-02T08:06:50.622Z,62.16
2016-07-02T08:07:51.223Z,61.97
2016-07-02T08:08:51.201Z,61.58
2016-07-02T08:09:51.188Z,62.19
2016-07-02T08:10:51.175Z,62.09
2016-07-02T08:11:51.156Z,61.71
2016-07-02T08:12:51.148Z,61.42
2016-07-02T08:13:51.131Z,61.52
2016-07-02T08:14:51.116Z,61.22
2016-07-02T08:15:51.098Z,61.71
2016-07-02T08:16:51.079Z,61.22
2016-07-02T08:17:51.063Z,60.94
2016-07-02T08:18:51.044Z,61.32
2016-07-02T08:19:51.037Z,61.32
2016-07-02T08:20:51.010Z,61.32
2016-07-02T08:21:51.000Z,61.32
2016-07-02T08:22:50.976Z,61.22
2016-07-02T08:23:50.348Z,61.32
2016-07-02T08:24:50.946Z,61.22
2016-07-02T08:25:50.942Z,61.8
2016-07-02T08:26:50.913Z,61.32
2016-07-02T08:27:50.904Z,61.13
2016-07-02T08:28:50.268Z,61.52
2016-07-02T08:29:50.860Z,61.61
2016-07-02T08:30:50.231Z,61.61
2016-07-02T08:31:50.839Z,61.32
2016-07-02T08:32:50.822Z,61.52
2016-07-02T08:33:50.806Z,60.94
2016-07-02T08:34:50.787Z,61.22
2016-07-02T08:35:50.776Z,61.22
2016-07-02T08:36:50.758Z,61.42
2016-07-02T08:37:50.120Z,61.22
2016-07-02T08:38:50.721Z,61.22
2016-07-02T08:39:50.707Z,61.32
2016-07-02T08:40:50.686Z,61.52
2016-07-02T08:41:50.675Z,60.84
2016-07-02T08:42:50.656Z,61.52
2016-07-02T08:43:50.640Z,61.22
2016-07-02T08:44:50.620Z,61.42
2016-07-02T08:45:50.612Z,60.94
2016-07-02T08:46:50.592Z,61.32
2016-07-02T08:47:50.581Z,61.13
2016-07-02T08:48:49.937Z,61.22
2016-07-02T08:49:50.545Z,61.22
2016-07-02T08:50:50.526Z,60.55
2016-07-02T08:51:50.520Z,61.42
2016-07-02T08:52:50.494Z,61.52
2016-07-02T08:53:49.865Z,60.75
2016-07-02T08:54:50.461Z,61.45
2016-07-02T08:55:50.442Z,60.77
2016-07-02T08:56:50.427Z,60.97
2016-07-02T08:57:50.408Z,60.1
2016-07-02T08:58:50.402Z,60.75
2016-07-02T08:59:50.387Z,60.58
2016-07-02T09:00:50.366Z,60
2016-07-02T09:01:50.355Z,60
2016-07-02T09:02:50.336Z,59.91
2016-07-02T09:03:50.327Z,60.58
2016-07-02T09:04:50.297Z,60.49
2016-07-02T09:05:50.288Z,60.97
2016-07-02T09:06:50.264Z,60.1
2016-07-02T09:07:50.256Z,59.52
2016-07-02T09:08:50.242Z,59.72
2016-07-02T09:09:50.221Z,59.52
2016-07-02T09:10:50.205Z,59.91
2016-07-02T09:11:50.186Z,59.43
2016-07-02T09:12:50.171Z,59.81
2016-07-02T09:13:50.171Z,59.23
2016-07-02T09:14:50.143Z,59.23
2016-07-02T09:15:50.126Z,58.56
2016-07-02T09:16:50.114Z,59.14
2016-07-02T09:17:50.096Z,59.23
2016-07-02T09:18:50.078Z,58.27
2016-07-02T09:19:49.443Z,58.95
2016-07-02T09:20:50.047Z,59.23
2016-07-02T09:21:50.030Z,58.82
2016-07-02T09:22:50.017Z,58.85
2016-07-02T09:23:50.010Z,59.52
2016-07-02T09:24:49.980Z,59.72
2016-07-02T09:25:49.968Z,60
2016-07-02T09:26:49.946Z,59.33
2016-07-02T09:27:49.929Z,59.62
2016-07-02T09:28:49.917Z,59.23
2016-07-02T09:29:49.899Z,59.62
2016-07-02T09:30:49.887Z,59.43
2016-07-02T09:31:49.872Z,59.14
2016-07-02T09:32:49.857Z,59.52
2016-07-02T09:33:49.223Z,59.14
2016-07-02T09:34:49.825Z,59.04
2016-07-02T09:35:49.803Z,59.43
2016-07-02T09:36:49.799Z,59.52
2016-07-02T09:37:49.775Z,59.62
2016-07-02T09:38:49.763Z,59.52
2016-07-02T09:39:49.743Z,59.43
2016-07-02T09:40:49.719Z,59.72
2016-07-02T09:41:49.092Z,59.62
2016-07-02T09:42:49.695Z,58.95
2016-07-02T09:43:49.683Z,59.81
2016-07-02T09:44:49.663Z,58.95
2016-07-02T09:45:49.652Z,59.04
2016-07-02T09:46:49.626Z,59.91
2016-07-02T09:47:49.609Z,59.33
2016-07-02T09:48:48.979Z,59.33
2016-07-02T09:49:48.973Z,58.85
2016-07-02T09:50:49.567Z,58.37
2016-07-02T09:51:49.562Z,58.65
2016-07-02T09:52:49.539Z,59.52
2016-07-02T09:53:49.518Z,61.38
2016-07-02T09:54:49.506Z,61.48
2016-07-02T09:55:49.487Z,61.48
2016-07-02T09:56:49.470Z,61.38
2016-07-02T09:57:49.459Z,61.38
2016-07-02T09:58:49.441Z,61.68
2016-07-02T09:59:49.433Z,61.38
2016-07-02T10:00:49.406Z,61.38
2016-07-02T10:01:49.380Z,61.48
2016-07-02T10:02:49.368Z,61.77
2016-07-02T10:03:49.352Z,61.58
2016-07-02T10:04:49.346Z,61.68
2016-07-02T10:05:49.327Z,61.68
2016-07-02T10:06:49.310Z,61.61
2016-07-02T10:07:49.294Z,61.38
2016-07-02T10:08:49.277Z,61.32
2016-07-02T10:09:49.260Z,61.29
2016-07-02T10:10:49.252Z,61.32
2016-07-02T10:11:49.228Z,61.41
2016-07-02T10:12:49.213Z,61.03
2016-07-02T10:13:49.210Z,61.41
2016-07-02T10:14:49.178Z,61.71
2016-07-02T10:15:48.547Z,61.22
2016-07-02T10:16:49.155Z,61.22
2016-07-02T10:17:49.136Z,61.61
2016-07-02T10:18:49.123Z,61.51
2016-07-02T10:19:49.104Z,61.22
2016-07-02T10:20:49.097Z,61.41
2016-07-02T10:21:49.070Z,61.32
2016-07-02T10:22:49.053Z,61.61
2016-07-02T10:23:49.036Z,61.32
2016-07-02T10:24:49.033Z,61.41
2016-07-02T10:25:49.011Z,62.09
2016-07-02T10:26:48.996Z,62.09
2016-07-02T10:27:48.990Z,62.57
2016-07-02T10:28:48.967Z,62.57
2016-07-02T10:29:48.947Z,60.26
2016-07-02T10:30:48.935Z,60.74
2016-07-02T10:31:48.925Z,58.81
2016-07-02T10:32:48.897Z,58.14
2016-07-02T10:33:48.888Z,59.78
2016-07-02T10:34:48.870Z,56.59
2016-07-02T10:35:48.855Z,55.44
2016-07-02T10:36:48.839Z,55.92
2016-07-02T10:37:48.209Z,56.3
2016-07-02T10:38:48.807Z,56.98
2016-07-02T10:39:48.177Z,58.81
2016-07-02T10:40:48.779Z,56.98
2016-07-02T10:41:48.758Z,55.05
2016-07-02T10:42:48.735Z,53.7
2016-07-02T10:43:48.730Z,51.87
2016-07-02T10:44:48.704Z,52.83
2016-07-02T10:45:48.698Z,53.03
2016-07-02T10:46:48.676Z,50.81
2016-07-02T10:47:48.667Z,52.55
2016-07-02T10:48:48.647Z,51.87
2016-07-02T10:49:48.633Z,51.87
2016-07-02T10:50:48.620Z,50.62
2016-07-02T10:51:48.602Z,50.62
2016-07-02T10:52:48.587Z,52.93
2016-07-02T10:53:48.570Z,55.92
2016-07-02T10:54:48.549Z,50.71
2016-07-02T10:55:48.543Z,49.55
2016-07-02T10:56:48.527Z,49.65
2016-07-02T10:57:48.504Z,49.46
2016-07-02T10:58:47.872Z,50.42
2016-07-02T10:59:48.474Z,49.94
2016-07-02T11:00:48.463Z,50.04
2016-07-02T11:01:48.460Z,48.21
2016-07-02T11:02:48.425Z,48.49
2016-07-02T11:03:48.417Z,49.17
2016-07-02T11:04:48.398Z,50.71
2016-07-02T11:05:48.387Z,53.61
2016-07-02T11:06:48.368Z,53.7
2016-07-02T11:07:48.356Z,52.73
2016-07-02T11:08:48.337Z,53.22
2016-07-02T11:09:48.321Z,53.99
2016-07-02T11:10:48.315Z,53.13
2016-07-02T11:11:48.297Z,51.2
2016-07-02T11:12:48.273Z,49.94
2016-07-02T11:13:48.260Z,49.27
2016-07-02T11:14:48.239Z,49.17
2016-07-02T11:15:48.228Z,51.29
2016-07-02T11:16:48.212Z,47.92
2016-07-02T11:17:48.196Z,49.37
2016-07-02T11:18:48.182Z,47.53
2016-07-02T11:19:48.167Z,46.86
2016-07-02T11:20:48.161Z,46.28
2016-07-02T11:21:48.136Z,46.28
2016-07-02T11:22:48.118Z,47.44
2016-07-02T11:23:48.105Z,46.28
2016-07-02T11:24:48.089Z,46.47
2016-07-02T11:25:48.071Z,47.24
2016-07-02T11:26:48.063Z,47.14
2016-07-02T11:27:48.096Z,46.47
2016-07-02T11:28:48.028Z,46.28
2016-07-02T11:29:48.009Z,46.45
2016-07-02T11:30:47.989Z,47.8
2016-07-02T11:31:47.977Z,48.57
2016-07-02T11:32:47.965Z,47.24
2016-07-02T11:33:48.055Z,47.24
2016-07-02T11:34:47.938Z,47.31
2016-07-02T11:35:47.920Z,47.22
2016-07-02T11:36:47.898Z,47.22
2016-07-02T11:37:47.896Z,47.6
2016-07-02T11:38:47.869Z,47.8
2016-07-02T11:39:47.864Z,47.22
2016-07-02T11:40:47.229Z,47.31
2016-07-02T11:41:47.823Z,47.22
2016-07-02T11:42:47.809Z,47.31
2016-07-02T11:43:47.794Z,47.12
2016-07-02T11:44:47.778Z,47.7
2016-07-02T11:45:47.763Z,46.15
2016-07-02T11:46:47.751Z,45.77
2016-07-02T11:47:47.732Z,46.06
2016-07-02T11:48:47.710Z,46.23
2016-07-02T11:49:47.699Z,46.15
2016-07-02T11:50:47.685Z,46.35
2016-07-02T11:51:47.669Z,46.06
2016-07-02T11:52:47.037Z,46.25
2016-07-02T11:53:47.640Z,46.73
2016-07-02T11:54:47.632Z,47.53
2016-07-02T11:55:47.604Z,47.24
2016-07-02T11:56:47.591Z,47.34
2016-07-02T11:57:47.586Z,47.63
2016-07-02T11:58:47.563Z,47.34
2016-07-02T11:59:47.542Z,47.34
2016-07-02T12:00:47.531Z,47.36
2016-07-02T12:01:47.512Z,47.36
2016-07-02T12:02:47.504Z,47.36
2016-07-02T12:03:46.883Z,48.03
2016-07-02T12:04:47.503Z,47.85
2016-07-02T12:05:47.449Z,47.85
2016-07-02T12:06:47.437Z,47.75
2016-07-02T12:07:47.416Z,48.23
2016-07-02T12:08:47.405Z,48.71
2016-07-02T12:09:47.384Z,48.9
2016-07-02T12:10:47.374Z,49
2016-07-02T12:11:47.353Z,48.23
2016-07-02T12:12:47.347Z,48.42
2016-07-02T12:13:47.327Z,48.71
2016-07-02T12:14:47.316Z,48.61
2016-07-02T12:15:47.290Z,48.71
2016-07-02T12:16:47.288Z,48.9
2016-07-02T12:17:47.268Z,49
2016-07-02T12:18:47.247Z,49.48
2016-07-02T12:19:46.621Z,49.39
2016-07-02T12:20:47.224Z,48.33
2016-07-02T12:21:46.581Z,46.11
2016-07-02T12:22:47.191Z,45.72
2016-07-02T12:23:47.169Z,43.7
2016-07-02T12:24:47.159Z,42.32
2016-07-02T12:25:47.140Z,41.65
2016-07-02T12:26:47.128Z,41.94
2016-07-02T12:27:47.105Z,42.71
2016-07-02T12:28:47.092Z,43.38
2016-07-02T12:29:47.080Z,43.96
2016-07-02T12:30:47.067Z,44.15
2016-07-02T12:31:47.051Z,44.27
2016-07-02T12:32:47.044Z,45.24
2016-07-02T12:33:47.028Z,45.34
2016-07-02T12:34:47.001Z,45.92
2016-07-02T12:35:47.001Z,45.62
2016-07-02T12:36:46.967Z,46.11
2016-07-02T12:37:46.951Z,46.3
2016-07-02T12:38:46.936Z,47.07
2016-07-02T12:39:46.921Z,47.45
2016-07-02T12:40:46.910Z,47.58
2016-07-02T12:41:46.896Z,47.45
2016-07-02T12:42:46.880Z,47.38
2016-07-02T12:43:46.858Z,47.77
2016-07-02T12:44:46.838Z,48.06
2016-07-02T12:45:46.828Z,47.87
2016-07-02T12:46:46.195Z,48.71
2016-07-02T12:47:46.806Z,48.64
2016-07-02T12:48:46.783Z,48.64
2016-07-02T12:49:46.769Z,48.35
2016-07-02T12:50:46.751Z,48.74
2016-07-02T12:51:46.735Z,48.64
2016-07-02T12:52:46.725Z,48.74
2016-07-02T12:53:46.704Z,48.54
2016-07-02T12:54:46.698Z,48.81
2016-07-02T12:55:46.676Z,48.64